sensor_id;sensor_type;location;lat;lon;timestamp;P1;durP1;ratioP1;P2;durP2;ratioP2
11921;SDS011;6021;51.182;3.160;2022-10-16T21:15:41;8.30;;;7.47;;
11921;SDS011;6021;51.182;3.160;2022-10-16T21:18:09;8.33;;;6.80;;
11921;SDS011;6021;51.182;3.160;2022-10-16T21:20:44;7.20;;;6.30;;
11921;SDS011;6021;51.182;3.160;2022-10-16T21:23:14;7.23;;;6.33;;
11921;SDS011;6021;51.182;3.160;2022-10-16T21:25:48;9.33;;;7.10;;
11921;SDS011;6021;51.182;3.160;2022-10-16T21:28:17;8.53;;;6.63;;
11921;SDS011;6021;51.182;3.160;2022-10-16T21:30:45;8.40;;;6.63;;
11921;SDS011;6021;51.182;3.160;2022-10-16T21:33:14;7.80;;;6.27;;
11921;SDS011;6021;51.182;3.160;2022-10-16T21:35:42;8.73;;;6.97;;
11921;SDS011;6021;51.182;3.160;2022-10-16T21:38:15;8.07;;;6.93;;
11921;SDS011;6021;51.182;3.160;2022-10-16T21:40:43;7.30;;;6.47;;
11921;SDS011;6021;51.182;3.160;2022-10-16T21:43:11;10.17;;;6.90;;
11921;SDS011;6021;51.182;3.160;2022-10-16T21:45:40;7.57;;;6.53;;
11921;SDS011;6021;51.182;3.160;2022-10-16T21:48:09;8.50;;;7.20;;
11921;SDS011;6021;51.182;3.160;2022-10-16T21:50:46;8.47;;;6.83;;
11921;SDS011;6021;51.182;3.160;2022-10-16T21:53:16;9.83;;;7.50;;
11921;SDS011;6021;51.182;3.160;2022-10-16T21:55:44;8.87;;;7.77;;
11921;SDS011;6021;51.182;3.160;2022-10-16T21:58:12;8.80;;;7.50;;
11921;SDS011;6021;51.182;3.160;2022-10-16T22:00:41;9.10;;;8.07;;
11921;SDS011;6021;51.182;3.160;2022-10-16T22:03:09;8.83;;;6.67;;
11921;SDS011;6021;51.182;3.160;2022-10-16T22:05:37;8.30;;;7.37;;
11921;SDS011;6021;51.182;3.160;2022-10-16T22:08:09;9.73;;;8.77;;
11921;SDS011;6021;51.182;3.160;2022-10-16T22:13:33;10.03;;;9.03;;
11921;SDS011;6021;51.182;3.160;2022-10-16T22:16:02;9.87;;;7.67;;
11921;SDS011;6021;51.182;3.160;2022-10-16T22:18:31;10.70;;;9.60;;
11921;SDS011;6021;51.182;3.160;2022-10-16T22:21:01;10.67;;;9.57;;
11921;SDS011;6021;51.182;3.160;2022-10-16T22:23:32;10.27;;;9.30;;
11921;SDS011;6021;51.182;3.160;2022-10-16T22:26:04;9.63;;;8.83;;
11921;SDS011;6021;51.182;3.160;2022-10-16T22:28:35;11.77;;;9.77;;
11921;SDS011;6021;51.182;3.160;2022-10-16T22:31:07;10.20;;;9.33;;
11921;SDS011;6021;51.182;3.160;2022-10-16T22:33:39;10.67;;;9.53;;
11921;SDS011;6021;51.182;3.160;2022-10-16T22:36:11;12.93;;;9.63;;
11921;SDS011;6021;51.182;3.160;2022-10-16T22:38:46;10.80;;;9.80;;
11921;SDS011;6021;51.182;3.160;2022-10-16T22:41:15;10.97;;;9.80;;
11921;SDS011;6021;51.182;3.160;2022-10-16T22:43:46;10.60;;;9.50;;
11921;SDS011;6021;51.182;3.160;2022-10-16T22:46:19;11.27;;;9.70;;
11921;SDS011;6021;51.182;3.160;2022-10-16T22:48:51;10.53;;;9.40;;
11921;SDS011;6021;51.182;3.160;2022-10-16T22:51:20;12.97;;;9.67;;
11921;SDS011;6021;51.182;3.160;2022-10-16T22:53:52;10.27;;;9.37;;
11921;SDS011;6021;51.182;3.160;2022-10-16T22:56:20;11.20;;;10.00;;
11921;SDS011;6021;51.182;3.160;2022-10-16T22:58:54;11.10;;;10.00;;
11921;SDS011;6021;51.182;3.160;2022-10-16T23:01:35;11.20;;;10.10;;
11921;SDS011;6021;51.182;3.160;2022-10-16T23:04:04;10.93;;;9.83;;
11921;SDS011;6021;51.182;3.160;2022-10-16T23:06:34;10.87;;;9.87;;
11921;SDS011;6021;51.182;3.160;2022-10-16T23:09:02;10.60;;;9.53;;
11921;SDS011;6021;51.182;3.160;2022-10-16T23:11:31;10.90;;;9.80;;
11921;SDS011;6021;51.182;3.160;2022-10-16T23:14:01;10.57;;;9.57;;
11921;SDS011;6021;51.182;3.160;2022-10-16T23:16:33;10.23;;;9.27;;
11921;SDS011;6021;51.182;3.160;2022-10-16T23:19:02;10.33;;;9.33;;
11921;SDS011;6021;51.182;3.160;2022-10-16T23:21:31;9.57;;;8.53;;
11921;SDS011;6021;51.182;3.160;2022-10-16T23:23:59;10.43;;;7.47;;
11921;SDS011;6021;51.182;3.160;2022-10-16T23:26:27;10.23;;;8.20;;
11921;SDS011;6021;51.182;3.160;2022-10-16T23:29:09;10.00;;;7.57;;
11921;SDS011;6021;51.182;3.160;2022-10-16T23:31:39;9.07;;;7.87;;
11921;SDS011;6021;51.182;3.160;2022-10-16T23:34:09;10.47;;;8.17;;
11921;SDS011;6021;51.182;3.160;2022-10-16T23:36:40;9.47;;;8.13;;
11921;SDS011;6021;51.182;3.160;2022-10-16T23:39:10;9.47;;;8.40;;
11921;SDS011;6021;51.182;3.160;2022-10-16T23:41:40;11.27;;;8.07;;
11921;SDS011;6021;51.182;3.160;2022-10-16T23:44:11;9.03;;;7.50;;
11921;SDS011;6021;51.182;3.160;2022-10-16T23:46:39;9.50;;;8.40;;
11921;SDS011;6021;51.182;3.160;2022-10-16T23:49:07;10.27;;;8.33;;
11921;SDS011;6021;51.182;3.160;2022-10-16T23:51:40;10.83;;;9.50;;
11921;SDS011;6021;51.182;3.160;2022-10-16T23:56:44;11.83;;;8.83;;
11921;SDS011;6021;51.182;3.160;2022-10-16T23:59:19;11.80;;;8.60;;
